Time;durP1;ratioP1;P1;durP2;ratioP2;P2;SDS_P1;SDS_P2;PMS_P1;PMS_P2;Temp;Humidity;BMP_temperature;BMP_pressure;BME280_temperature;BME280_humidity;BME280_pressure;Samples;Min_cycle;Max_cycle;Signal;HPM_P1;HPM_P2
2023/11/01 00:01:42;;;;;;;2.55;1.40;;;11.90;99.90;;;;;;5040400;28;20083;-52
2023/11/01 00:04:08;;;;;;;6.15;1.70;;;11.90;99.90;;;;;;5022157;28;20036;-53
2023/11/01 00:06:34;;;;;;;5.38;1.45;;;11.90;99.90;;;;;;5039601;28;20474;-50
2023/11/01 00:08:59;;;;;;;2.30;1.27;;;11.90;99.90;;;;;;5040084;28;20029;-49
2023/11/01 00:11:25;;;;;;;3.17;1.60;;;11.90;99.90;;;;;;5022996;28;20386;-50
2023/11/01 00:13:51;;;;;;;2.53;1.15;;;11.90;99.90;;;;;;5022730;28;20475;-51
2023/11/01 00:16:16;;;;;;;7.03;1.73;;;12.00;99.90;;;;;;5039254;28;20544;-50
2023/11/01 00:18:42;;;;;;;5.33;1.43;;;11.90;99.90;;;;;;5039975;28;20025;-50
2023/11/01 00:21:08;;;;;;;7.50;1.92;;;12.00;99.90;;;;;;5040248;28;20052;-49
2023/11/01 00:23:34;;;;;;;5.37;2.20;;;12.00;99.90;;;;;;5022305;28;20095;-51
2023/11/01 00:25:59;;;;;;;7.25;1.63;;;12.00;99.90;;;;;;5039789;28;20393;-50
2023/11/01 00:28:26;;;;;;;8.02;1.70;;;12.00;99.90;;;;;;5021796;28;20040;-48
2023/11/01 00:30:52;;;;;;;6.68;1.67;;;12.00;99.90;;;;;;5040527;28;20041;-51
2023/11/01 00:33:18;;;;;;;7.55;1.83;;;12.00;99.90;;;;;;5006076;28;20045;-49
2023/11/01 00:35:43;;;;;;;4.47;1.67;;;12.00;99.90;;;;;;5021927;28;20568;-52
2023/11/01 00:38:09;;;;;;;4.53;1.58;;;12.00;99.90;;;;;;5021767;28;20041;-51
2023/11/01 00:40:35;;;;;;;3.63;1.55;;;11.90;99.90;;;;;;5022028;28;20041;-50
2023/11/01 00:43:00;;;;;;;6.35;1.65;;;12.00;99.90;;;;;;5039931;28;20038;-50
2023/11/01 00:45:26;;;;;;;5.22;1.52;;;12.00;99.90;;;;;;5021406;28;20167;-51
2023/11/01 00:47:51;;;;;;;4.85;1.33;;;12.00;99.90;;;;;;5020925;28;20036;-49
2023/11/01 00:50:17;;;;;;;4.82;2.20;;;12.00;99.90;;;;;;5039145;28;20445;-49
2023/11/01 00:52:44;;;;;;;4.27;1.23;;;12.00;99.90;;;;;;5020718;28;20088;-50
2023/11/01 00:55:09;;;;;;;6.83;1.50;;;12.00;99.90;;;;;;5021677;28;20041;-49
2023/11/01 00:57:35;;;;;;;4.83;1.47;;;12.00;99.90;;;;;;5038941;28;20091;-52
2023/11/01 01:00:01;;;;;;;5.80;1.80;;;12.00;99.90;;;;;;5021151;28;20120;-49
2023/11/01 01:02:26;;;;;;;6.67;1.20;;;12.00;99.90;;;;;;5021769;28;20040;-48
2023/11/01 01:04:52;;;;;;;5.38;1.50;;;12.00;99.90;;;;;;5039675;28;20029;-51
2023/11/01 01:07:19;;;;;;;6.07;2.13;;;12.00;99.90;;;;;;5021555;28;20037;-49
2023/11/01 01:09:45;;;;;;;2.67;1.00;;;11.90;99.90;;;;;;5021056;28;20080;-54
2023/11/01 01:12:10;;;;;;;6.30;1.73;;;11.90;99.90;;;;;;5039507;28;20418;-49
2023/11/01 01:14:36;;;;;;;5.20;1.43;;;11.90;99.90;;;;;;5005524;28;20029;-51
2023/11/01 01:17:02;;;;;;;2.60;0.90;;;11.90;99.90;;;;;;5021508;28;20112;-49
2023/11/01 01:19:28;;;;;;;6.50;1.93;;;11.90;99.90;;;;;;5038956;28;20509;-50
2023/11/01 01:21:53;;;;;;;4.97;1.30;;;11.90;99.90;;;;;;5039330;28;20028;-51
2023/11/01 01:24:19;;;;;;;5.40;1.57;;;11.90;99.90;;;;;;5021853;28;20426;-54
2023/11/01 01:26:46;;;;;;;2.37;1.00;;;11.90;99.90;;;;;;5021243;28;20037;-50
2023/11/01 01:29:12;;;;;;;7.33;2.17;;;11.80;99.90;;;;;;5020969;28;20025;-50
2023/11/01 01:31:37;;;;;;;5.63;1.38;;;11.80;99.90;;;;;;5021635;28;20500;-50
2023/11/01 01:34:03;;;;;;;4.43;1.05;;;11.80;99.90;;;;;;5020973;28;20114;-50
2023/11/01 01:36:29;;;;;;;3.33;1.30;;;11.90;99.90;;;;;;5039177;28;20449;-49
2023/11/01 01:38:54;;;;;;;4.57;1.40;;;11.80;99.90;;;;;;5021231;28;20029;-50
2023/11/01 01:41:20;;;;;;;3.83;1.25;;;11.80;99.90;;;;;;5021840;28;20465;-53
2023/11/01 01:43:46;;;;;;;3.87;1.47;;;11.80;99.90;;;;;;5021455;28;20509;-49
2023/11/01 01:46:16;;;;;;;5.63;1.23;;;11.80;99.90;;;;;;5021386;28;20045;-50
2023/11/01 01:48:43;;;;;;;4.53;1.52;;;11.80;99.90;;;;;;5021325;28;20501;-49
2023/11/01 01:51:09;;;;;;;8.77;1.90;;;11.80;99.90;;;;;;5021879;28;20128;-50
2023/11/01 01:53:44;;;;;;;2.27;1.20;;;11.70;99.90;;;;;;5021343;28;20112;-51
2023/11/01 01:56:12;;;;;;;5.93;1.50;;;11.70;99.90;;;;;;5021355;28;20033;-52
2023/11/01 01:58:40;;;;;;;4.57;1.30;;;11.70;99.90;;;;;;5020661;28;20033;-51
2023/11/01 02:01:06;;;;;;;6.33;1.60;;;11.70;99.90;;;;;;5021387;28;20053;-52
2023/11/01 02:03:31;;;;;;;4.55;1.55;;;11.60;99.90;;;;;;5020818;28;20418;-50
2023/11/01 02:05:57;;;;;;;4.68;1.45;;;11.60;99.90;;;;;;5021023;28;20044;-50
2023/11/01 02:08:25;;;;;;;3.13;1.23;;;11.60;99.90;;;;;;5020585;28;20029;-49
2023/11/01 02:10:51;;;;;;;7.07;1.77;;;11.50;99.90;;;;;;5038661;28;20029;-51
2023/11/01 02:13:17;;;;;;;8.47;1.53;;;11.60;99.90;;;;;;5020862;28;20468;-50
2023/11/01 02:15:44;;;;;;;5.30;1.40;;;11.60;99.90;;;;;;5021162;28;20071;-50
2023/11/01 02:18:11;;;;;;;5.53;1.30;;;11.60;99.90;;;;;;5021493;28;20041;-50
2023/11/01 02:20:40;;;;;;;3.05;1.65;;;11.60;99.90;;;;;;5020366;28;20041;-52
2023/11/01 02:23:11;;;;;;;6.53;1.70;;;11.60;99.90;;;;;;5020943;28;20029;-49
2023/11/01 02:25:41;;;;;;;5.67;1.90;;;11.60;99.90;;;;;;5021402;28;20241;-53
2023/11/01 02:28:09;;;;;;;6.45;1.60;;;11.60;99.90;;;;;;5020904;28;20025;-51
2023/11/01 02:30:35;;;;;;;3.20;1.10;;;11.60;99.90;;;;;;5020719;28;20022;-50
2023/11/01 02:33:01;;;;;;;3.63;1.20;;;11.60;99.90;;;;;;5038360;28;20037;-49
2023/11/01 02:35:27;;;;;;;3.93;1.60;;;11.60;99.90;;;;;;5038842;28;20029;-52
2023/11/01 02:37:52;;;;;;;4.32;1.13;;;11.60;99.90;;;;;;5021109;28;20049;-50
2023/11/01 02:40:18;;;;;;;2.43;1.10;;;11.60;99.90;;;;;;5020632;28;20037;-52
2023/11/01 02:42:51;;;;;;;6.63;1.30;;;11.50;99.90;;;;;;5038401;28;20033;-49
2023/11/01 02:45:17;;;;;;;6.27;1.60;;;11.50;99.90;;;;;;5039103;28;20041;-49
2023/11/01 02:47:43;;;;;;;6.03;1.33;;;11.60;99.90;;;;;;5038327;28;20482;-50
2023/11/01 02:50:13;;;;;;;2.10;1.20;;;11.50;99.90;;;;;;5020877;28;20081;-49
2023/11/01 02:52:39;;;;;;;4.47;1.50;;;11.50;99.90;;;;;;5038198;28;20302;-49
2023/11/01 02:55:11;;;;;;;4.60;1.63;;;11.50;99.90;;;;;;5038068;28;20037;-51
2023/11/01 02:57:38;;;;;;;3.17;1.10;;;11.50;99.90;;;;;;5037828;28;20052;-51
2023/11/01 03:00:06;;;;;;;3.90;1.20;;;11.50;99.90;;;;;;5036925;28;20105;-52
2023/11/01 03:02:35;;;;;;;4.07;1.40;;;11.50;99.90;;;;;;5037762;28;20033;-51
2023/11/01 03:05:01;;;;;;;4.93;1.60;;;11.40;99.90;;;;;;5038099;28;20057;-51
2023/11/01 03:07:28;;;;;;;6.17;1.40;;;11.40;99.90;;;;;;5004213;28;20029;-54
2023/11/01 03:09:53;;;;;;;2.50;1.40;;;11.40;99.90;;;;;;5020538;28;20059;-50
2023/11/01 03:12:19;;;;;;;6.37;1.70;;;11.40;99.90;;;;;;5020855;28;20489;-52
2023/11/01 03:14:44;;;;;;;9.13;2.00;;;11.40;99.90;;;;;;5005486;28;20036;-50
2023/11/01 03:17:10;;;;;;;5.50;1.87;;;11.40;99.90;;;;;;5023473;28;20025;-54
2023/11/01 03:19:39;;;;;;;3.23;1.70;;;11.40;99.90;;;;;;5042307;28;20459;-49
2023/11/01 03:22:05;;;;;;;8.40;2.40;;;11.40;99.90;;;;;;5024840;28;20040;-50
2023/11/01 03:24:31;;;;;;;4.70;1.77;;;11.40;99.90;;;;;;5008078;28;20152;-50
2023/11/01 03:26:58;;;;;;;6.27;2.00;;;11.40;99.90;;;;;;5041624;28;20347;-49
2023/11/01 03:29:24;;;;;;;4.40;1.90;;;11.40;99.90;;;;;;5024216;28;20447;-49
2023/11/01 03:31:49;;;;;;;6.50;1.87;;;11.40;99.90;;;;;;5024377;28;20065;-52
2023/11/01 03:34:16;;;;;;;5.33;2.20;;;11.40;99.90;;;;;;5042113;28;20033;-50
2023/11/01 03:36:42;;;;;;;6.13;2.00;;;11.30;99.90;;;;;;5023375;28;20485;-53
2023/11/01 03:39:09;;;;;;;5.43;1.90;;;11.30;99.90;;;;;;5039877;28;20109;-53
2023/11/01 03:41:45;;;;;;;7.07;2.23;;;11.30;99.90;;;;;;5037322;28;20450;-55
2023/11/01 03:44:10;;;;;;;3.17;1.47;;;11.30;99.90;;;;;;5020129;28;20038;-52
2023/11/01 03:46:36;;;;;;;3.87;1.70;;;11.30;99.90;;;;;;5019469;28;20026;-54
2023/11/01 03:49:02;;;;;;;4.43;1.30;;;11.30;99.90;;;;;;5021087;28;20021;-54
2023/11/01 03:51:28;;;;;;;5.43;2.00;;;11.30;99.90;;;;;;5039057;28;20172;-55
2023/11/01 03:53:55;;;;;;;3.00;1.50;;;11.30;99.90;;;;;;5005109;28;20049;-55
2023/11/01 03:56:22;;;;;;;3.67;2.00;;;11.20;99.90;;;;;;5037972;28;20112;-55
2023/11/01 03:58:48;;;;;;;4.23;1.83;;;11.20;99.90;;;;;;5037734;28;20093;-51
2023/11/01 04:01:14;;;;;;;5.50;1.93;;;11.30;99.90;;;;;;5038046;28;20044;-54
2023/11/01 04:03:40;;;;;;;4.30;1.97;;;11.30;99.90;;;;;;5037727;28;20037;-53
2023/11/01 04:06:06;;;;;;;3.73;1.97;;;11.30;99.90;;;;;;5037451;28;20026;-54
2023/11/01 04:08:32;;;;;;;1.70;1.17;;;11.30;99.90;;;;;;5037637;28;20117;-53
2023/11/01 04:10:58;;;;;;;2.13;1.27;;;11.30;99.90;;;;;;5037941;28;20073;-53
2023/11/01 04:13:23;;;;;;;3.63;1.70;;;11.40;99.90;;;;;;5037113;28;20025;-53
2023/11/01 04:15:49;;;;;;;3.20;1.63;;;11.40;99.90;;;;;;5037173;28;20043;-54
2023/11/01 04:18:15;;;;;;;6.27;1.73;;;11.40;99.90;;;;;;5019964;28;20025;-55
2023/11/01 04:20:41;;;;;;;4.33;1.43;;;11.40;99.90;;;;;;5037263;28;20033;-55
2023/11/01 04:23:06;;;;;;;4.43;1.90;;;11.40;99.90;;;;;;5040713;28;20033;-54
2023/11/01 04:25:32;;;;;;;3.27;1.63;;;11.40;99.90;;;;;;5042512;28;20026;-52
2023/11/01 04:27:58;;;;;;;4.77;1.93;;;11.40;99.90;;;;;;5037671;28;20072;-54
2023/11/01 04:30:24;;;;;;;5.57;1.97;;;11.40;99.90;;;;;;5039434;28;20029;-55
2023/11/01 04:32:50;;;;;;;4.07;2.20;;;11.30;99.90;;;;;;5039142;28;20030;-53
2023/11/01 04:35:16;;;;;;;4.90;2.27;;;11.30;99.90;;;;;;5039029;28;20041;-54
2023/11/01 04:37:42;;;;;;;5.73;1.60;;;11.40;99.90;;;;;;5039307;28;20084;-54
2023/11/01 04:40:12;;;;;;;5.03;1.77;;;11.30;99.90;;;;;;5020996;28;20060;-55
2023/11/01 04:42:41;;;;;;;4.03;1.63;;;11.30;99.90;;;;;;5020770;28;20087;-53
2023/11/01 04:45:08;;;;;;;7.18;1.70;;;11.30;99.90;;;;;;5039757;28;20032;-54
2023/11/01 04:47:35;;;;;;;3.50;1.63;;;11.40;99.90;;;;;;5039093;28;20033;-55
2023/11/01 04:50:02;;;;;;;4.33;1.73;;;11.40;99.90;;;;;;5038648;28;20096;-53
2023/11/01 04:52:28;;;;;;;3.10;1.53;;;11.40;99.90;;;;;;5021059;28;20044;-54
2023/11/01 04:54:54;;;;;;;2.47;1.60;;;11.40;99.90;;;;;;5038582;28;20052;-55
2023/11/01 04:57:20;;;;;;;5.47;1.77;;;11.40;99.90;;;;;;5037851;28;20036;-55
2023/11/01 04:59:45;;;;;;;5.17;1.40;;;11.40;99.90;;;;;;5038343;28;20391;-55
2023/11/01 05:02:11;;;;;;;3.73;1.20;;;11.50;99.90;;;;;;5038471;28;20021;-54
2023/11/01 05:04:37;;;;;;;4.37;1.73;;;11.50;99.90;;;;;;5038469;28;20462;-54
2023/11/01 05:07:03;;;;;;;3.47;1.40;;;11.50;99.90;;;;;;5038230;28;20021;-52
2023/11/01 05:09:29;;;;;;;3.10;1.27;;;11.50;99.90;;;;;;5037882;28;20029;-54
2023/11/01 05:11:54;;;;;;;2.47;1.40;;;11.50;99.90;;;;;;5038447;28;20029;-54
2023/11/01 05:14:20;;;;;;;1.93;1.27;;;11.50;99.90;;;;;;5038446;28;20479;-53
2023/11/01 05:16:48;;;;;;;2.33;1.13;;;11.50;99.90;;;;;;5037901;28;20089;-54
2023/11/01 05:19:16;;;;;;;3.65;1.40;;;11.50;99.90;;;;;;5019746;28;20099;-54
2023/11/01 05:21:42;;;;;;;2.67;1.10;;;11.50;99.90;;;;;;5020300;28;20030;-55
2023/11/01 05:24:07;;;;;;;4.70;1.20;;;11.50;99.90;;;;;;5037644;28;20075;-54
2023/11/01 05:26:36;;;;;;;4.77;1.43;;;11.60;99.90;;;;;;5037860;28;20048;-53
2023/11/01 05:29:03;;;;;;;2.03;0.95;;;11.60;99.90;;;;;;5037403;28;20033;-53
2023/11/01 05:31:30;;;;;;;3.93;1.40;;;11.60;99.90;;;;;;5037999;28;20104;-54
2023/11/01 05:33:58;;;;;;;4.80;1.23;;;11.60;99.90;;;;;;5037447;28;20038;-52
2023/11/01 05:36:25;;;;;;;4.60;1.40;;;11.50;99.90;;;;;;5038030;28;20030;-55
2023/11/01 05:38:51;;;;;;;2.30;1.27;;;11.60;99.90;;;;;;5037117;28;20093;-53
2023/11/01 05:41:17;;;;;;;2.07;1.03;;;11.60;99.90;;;;;;5037747;28;20057;-55
2023/11/01 05:43:43;;;;;;;3.90;1.43;;;11.60;99.90;;;;;;5037766;28;20392;-52
2023/11/01 05:46:10;;;;;;;2.40;1.30;;;11.60;99.90;;;;;;5003421;28;20041;-54
2023/11/01 05:48:36;;;;;;;4.67;1.43;;;11.60;99.90;;;;;;5037809;28;20069;-50
2023/11/01 05:51:03;;;;;;;4.33;1.83;;;11.70;99.90;;;;;;5037713;28;20362;-54
2023/11/01 05:53:29;;;;;;;2.30;1.20;;;11.70;99.90;;;;;;5037631;28;20038;-54
2023/11/01 05:55:54;;;;;;;3.13;1.17;;;11.70;99.90;;;;;;5037201;28;20048;-53
2023/11/01 05:58:21;;;;;;;3.60;1.40;;;11.70;99.90;;;;;;5037040;28;20033;-55
2023/11/01 06:00:48;;;;;;;3.37;1.77;;;11.70;99.90;;;;;;5037275;28;20087;-52
2023/11/01 06:03:14;;;;;;;5.17;2.00;;;11.70;99.90;;;;;;5036946;28;20033;-55
2023/11/01 06:05:40;;;;;;;7.43;1.63;;;11.70;99.90;;;;;;5036846;28;20099;-52
2023/11/01 06:08:10;;;;;;;3.77;1.23;;;11.70;99.90;;;;;;5036907;28;20022;-55
2023/11/01 06:10:36;;;;;;;6.43;1.37;;;11.80;99.90;;;;;;5036866;28;20083;-55
2023/11/01 06:13:03;;;;;;;2.10;1.00;;;11.80;99.90;;;;;;5037147;28;20044;-54
2023/11/01 06:15:29;;;;;;;4.90;1.37;;;11.80;99.90;;;;;;5037179;28;20124;-52
2023/11/01 06:17:56;;;;;;;3.13;1.07;;;11.70;99.90;;;;;;5036132;28;20061;-55
2023/11/01 06:20:22;;;;;;;3.43;1.70;;;11.70;99.90;;;;;;5037082;28;20097;-54
2023/11/01 06:22:47;;;;;;;5.15;1.45;;;11.70;99.90;;;;;;5036656;28;20061;-55
2023/11/01 06:25:14;;;;;;;5.10;1.50;;;11.80;99.90;;;;;;5036831;28;20041;-55
2023/11/01 06:27:39;;;;;;;5.60;1.30;;;11.80;99.90;;;;;;5037241;28;20490;-54
2023/11/01 06:30:06;;;;;;;5.67;1.83;;;11.80;99.90;;;;;;5036490;28;20021;-55
2023/11/01 06:32:32;;;;;;;2.57;1.10;;;11.80;99.90;;;;;;5036436;28;20037;-54
2023/11/01 06:34:59;;;;;;;3.57;1.13;;;11.80;99.90;;;;;;5036359;28;20041;-54
2023/11/01 06:37:25;;;;;;;3.17;1.50;;;11.80;99.90;;;;;;5018712;28;20171;-54
2023/11/01 06:39:50;;;;;;;4.47;1.40;;;11.80;99.90;;;;;;5035753;28;20033;-54
2023/11/01 06:42:16;;;;;;;3.10;1.10;;;11.80;99.90;;;;;;5035972;28;20438;-55
2023/11/01 06:44:42;;;;;;;5.50;1.33;;;11.80;99.90;;;;;;5036941;28;20073;-52
2023/11/01 06:47:07;;;;;;;3.03;1.25;;;11.80;99.90;;;;;;5036411;28;20030;-53
2023/11/01 06:49:38;;;;;;;3.72;1.30;;;11.80;99.90;;;;;;5036373;28;20099;-54
2023/11/01 06:52:05;;;;;;;7.50;1.73;;;11.80;99.90;;;;;;5036005;28;20030;-51
2023/11/01 06:54:30;;;;;;;3.30;1.20;;;11.80;99.90;;;;;;5036567;28;20029;-55
2023/11/01 06:56:56;;;;;;;7.17;1.27;;;11.80;99.90;;;;;;5036587;28;20029;-54
2023/11/01 06:59:22;;;;;;;4.55;1.10;;;11.80;99.90;;;;;;5036657;28;20034;-53
2023/11/01 07:01:47;;;;;;;3.20;1.00;;;11.80;99.90;;;;;;5018124;28;20112;-55
2023/11/01 07:04:13;;;;;;;4.10;1.40;;;11.80;99.90;;;;;;5036250;28;20128;-54
2023/11/01 07:06:41;;;;;;;3.43;1.20;;;11.80;99.90;;;;;;5036002;28;20025;-55
2023/11/01 07:09:07;;;;;;;5.43;1.10;;;11.80;99.90;;;;;;5035974;28;20041;-54
2023/11/01 07:11:33;;;;;;;7.57;1.60;;;11.90;99.90;;;;;;5035988;28;20049;-53
2023/11/01 07:13:59;;;;;;;3.00;1.42;;;11.90;99.90;;;;;;5036586;28;20502;-53
2023/11/01 07:16:25;;;;;;;3.78;1.00;;;11.80;99.90;;;;;;5036982;28;20075;-53
2023/11/01 07:18:51;;;;;;;3.00;1.02;;;11.90;99.90;;;;;;5036117;28;20026;-50
2023/11/01 07:21:16;;;;;;;4.90;1.27;;;11.90;99.90;;;;;;5018530;28;20040;-55
2023/11/01 07:23:43;;;;;;;5.97;1.50;;;11.90;99.90;;;;;;5036606;28;20026;-55
2023/11/01 07:26:09;;;;;;;4.25;1.10;;;11.90;99.90;;;;;;5036146;28;20064;-55
2023/11/01 07:28:35;;;;;;;5.72;1.27;;;12.00;99.90;;;;;;5035685;28;20536;-54
2023/11/01 07:31:01;;;;;;;4.13;1.17;;;12.00;99.90;;;;;;5036610;28;20034;-51
2023/11/01 07:33:27;;;;;;;4.15;1.30;;;12.00;99.90;;;;;;5036651;28;20037;-52
2023/11/01 07:35:52;;;;;;;4.00;1.80;;;12.00;99.90;;;;;;5018190;28;20030;-54
2023/11/01 07:38:18;;;;;;;10.55;1.52;;;12.00;99.90;;;;;;5036183;28;20040;-52
2023/11/01 07:40:44;;;;;;;2.15;1.10;;;12.10;99.90;;;;;;5036404;28;20037;-50
2023/11/01 07:43:09;;;;;;;5.93;1.20;;;12.10;99.90;;;;;;5017964;28;20072;-54
2023/11/01 07:45:35;;;;;;;4.07;0.90;;;12.20;99.90;;;;;;5036222;28;20033;-51
2023/11/01 07:48:01;;;;;;;3.28;1.42;;;12.20;99.90;;;;;;5036075;28;20021;-53
2023/11/01 07:50:26;;;;;;;6.05;1.40;;;12.20;99.90;;;;;;5036042;28;20093;-54
2023/11/01 07:52:52;;;;;;;2.33;1.15;;;12.20;99.90;;;;;;5035762;28;20045;-53
2023/11/01 07:55:19;;;;;;;5.35;1.30;;;12.20;99.90;;;;;;5036655;28;20033;-53
2023/11/01 07:57:45;;;;;;;6.18;1.60;;;12.30;99.90;;;;;;5036135;28;20040;-55
2023/11/01 08:00:12;;;;;;;2.78;1.33;;;12.30;99.90;;;;;;5036390;28;20393;-52
2023/11/01 08:02:38;;;;;;;5.47;1.10;;;12.30;99.90;;;;;;5037945;28;20115;-53
2023/11/01 08:05:04;;;;;;;6.93;1.27;;;12.30;99.90;;;;;;5039825;28;20057;-52
2023/11/01 08:07:31;;;;;;;3.35;1.10;;;12.40;99.90;;;;;;5039766;28;20039;-52
2023/11/01 08:09:58;;;;;;;6.18;1.50;;;12.40;99.90;;;;;;5021841;28;20116;-52
2023/11/01 08:12:23;;;;;;;3.25;1.17;;;12.40;99.90;;;;;;5039554;28;20326;-53
2023/11/01 08:14:50;;;;;;;4.50;1.15;;;12.40;99.90;;;;;;5039582;28;20390;-54
2023/11/01 08:17:17;;;;;;;4.60;1.23;;;12.50;99.90;;;;;;5039718;28;20043;-51
2023/11/01 08:19:43;;;;;;;2.15;1.00;;;12.50;99.90;;;;;;5040003;28;20505;-53
2023/11/01 08:22:12;;;;;;;3.50;1.13;;;12.60;99.90;;;;;;5039346;28;20214;-54
2023/11/01 08:24:38;;;;;;;2.35;1.00;;;12.60;99.90;;;;;;5039688;28;20036;-52
2023/11/01 08:27:04;;;;;;;5.90;1.23;;;12.60;99.90;;;;;;5039224;28;20556;-51
2023/11/01 08:29:31;;;;;;;5.50;1.05;;;12.70;99.90;;;;;;5038714;28;20026;-51
2023/11/01 08:31:57;;;;;;;7.13;1.75;;;12.70;99.90;;;;;;5039792;28;20040;-51
2023/11/01 08:34:22;;;;;;;3.72;1.20;;;12.80;99.90;;;;;;5039064;28;20067;-54
2023/11/01 08:36:48;;;;;;;4.53;1.38;;;12.80;99.90;;;;;;5021581;28;20071;-53
2023/11/01 08:39:14;;;;;;;28.02;13.27;;;12.90;99.90;;;;;;5038917;28;20029;-50
2023/11/01 08:41:39;;;;;;;23.73;11.30;;;13.00;99.90;;;;;;5039053;28;20041;-52
2023/11/01 08:44:05;;;;;;;9.90;4.13;;;13.00;99.90;;;;;;5039550;28;20048;-50
2023/11/01 08:46:31;;;;;;;8.23;2.80;;;13.10;99.90;;;;;;5038981;28;20072;-54
2023/11/01 08:48:57;;;;;;;4.30;1.65;;;13.20;99.90;;;;;;5038933;28;20025;-50
2023/11/01 08:51:23;;;;;;;3.25;0.80;;;13.30;99.90;;;;;;5038938;28;20029;-51
2023/11/01 08:53:48;;;;;;;1.67;0.77;;;13.30;99.90;;;;;;5038274;28;20029;-51
2023/11/01 08:56:14;;;;;;;2.92;0.88;;;13.30;99.90;;;;;;5038225;28;20030;-52
2023/11/01 08:58:40;;;;;;;2.90;1.15;;;13.50;99.90;;;;;;5038324;28;20033;-50
2023/11/01 09:01:05;;;;;;;3.28;0.88;;;13.60;99.90;;;;;;5038910;28;20034;-50
2023/11/01 09:03:31;;;;;;;6.60;1.65;;;13.70;99.90;;;;;;5021360;28;20033;-50
2023/11/01 09:05:57;;;;;;;3.03;0.90;;;13.90;99.90;;;;;;5038308;28;20029;-50
2023/11/01 09:08:24;;;;;;;3.55;1.00;;;13.90;99.90;;;;;;5020347;28;20394;-53
2023/11/01 09:10:49;;;;;;;5.38;1.13;;;14.00;99.90;;;;;;5037763;28;20441;-51
2023/11/01 09:13:15;;;;;;;6.32;1.20;;;14.00;99.90;;;;;;5037542;28;20041;-55
2023/11/01 09:15:41;;;;;;;5.35;1.23;;;14.00;99.90;;;;;;5037872;28;20030;-55
2023/11/01 09:18:07;;;;;;;5.47;1.50;;;14.00;99.90;;;;;;5038207;28;20036;-54
2023/11/01 09:20:32;;;;;;;5.32;0.90;;;14.00;99.90;;;;;;5038280;28;20030;-54
2023/11/01 09:22:58;;;;;;;3.72;1.00;;;14.00;99.90;;;;;;5037910;28;20029;-52
2023/11/01 09:25:27;;;;;;;4.10;1.27;;;14.00;99.90;;;;;;5037971;28;20033;-52
2023/11/01 09:27:52;;;;;;;3.42;1.00;;;14.00;99.90;;;;;;5020950;28;20109;-52
2023/11/01 09:30:18;;;;;;;6.07;1.23;;;14.00;99.90;;;;;;5038247;28;20029;-50
2023/11/01 09:32:44;;;;;;;1.45;0.85;;;14.00;99.90;;;;;;5038077;28;20116;-51
2023/11/01 09:35:11;;;;;;;3.45;1.10;;;14.00;99.90;;;;;;5038749;28;20056;-53
2023/11/01 09:37:38;;;;;;;6.63;1.05;;;14.00;99.90;;;;;;5038157;28;20044;-51
2023/11/01 09:40:05;;;;;;;5.93;1.10;;;14.00;99.90;;;;;;5038495;28;20049;-51
2023/11/01 09:42:30;;;;;;;3.45;0.80;;;14.00;99.90;;;;;;5020070;28;20117;-51
2023/11/01 09:44:57;;;;;;;4.95;1.85;;;14.00;99.90;;;;;;5038495;28;20026;-51
2023/11/01 09:47:25;;;;;;;9.98;2.40;;;14.00;99.90;;;;;;5037643;28;20025;-52
2023/11/01 09:49:51;;;;;;;5.65;1.10;;;14.00;99.90;;;;;;5037134;28;20037;-50
2023/11/01 09:52:17;;;;;;;3.83;1.00;;;14.00;99.90;;;;;;5037525;28;20026;-50
2023/11/01 09:54:43;;;;;;;3.00;1.20;;;14.10;99.90;;;;;;5037536;28;20083;-50
2023/11/01 09:57:11;;;;;;;3.90;0.90;;;14.10;99.90;;;;;;5003082;28;20022;-51
2023/11/01 09:59:38;;;;;;;2.55;1.05;;;14.10;99.90;;;;;;5037442;28;20378;-51
2023/11/01 10:02:07;;;;;;;2.35;0.90;;;14.00;99.90;;;;;;5035088;28;20021;-54
2023/11/01 10:04:34;;;;;;;6.22;1.55;;;14.00;99.90;;;;;;5033727;28;20103;-51
2023/11/01 10:07:00;;;;;;;5.22;0.95;;;14.00;99.90;;;;;;5036755;28;20037;-54
2023/11/01 10:09:28;;;;;;;2.58;0.90;;;14.00;99.90;;;;;;5036131;28;20029;-53
2023/11/01 10:11:56;;;;;;;7.65;1.10;;;14.00;99.90;;;;;;5035997;28;20040;-55
2023/11/01 10:14:29;;;;;;;4.28;1.30;;;14.10;99.90;;;;;;5036598;28;20091;-54
2023/11/01 10:16:57;;;;;;;1.65;0.82;;;14.20;99.90;;;;;;5036035;28;20068;-53
2023/11/01 10:19:24;;;;;;;5.40;1.05;;;14.60;99.90;;;;;;5035731;28;20041;-54
2023/11/01 10:21:49;;;;;;;2.28;0.70;;;14.90;99.90;;;;;;5036420;28;20092;-54
2023/11/01 10:24:15;;;;;;;6.65;0.93;;;15.30;99.90;;;;;;5018463;28;20025;-55
2023/11/01 10:26:41;;;;;;;2.83;0.85;;;15.40;99.90;;;;;;5035578;28;20390;-53
2023/11/01 10:29:07;;;;;;;3.80;0.73;;;15.40;99.90;;;;;;5035386;28;20030;-53
2023/11/01 10:31:32;;;;;;;2.97;0.70;;;15.30;99.90;;;;;;5035865;28;20033;-55
2023/11/01 10:33:58;;;;;;;1.90;0.80;;;15.20;99.90;;;;;;5036294;28;20036;-53
2023/11/01 10:36:24;;;;;;;4.63;0.60;;;15.60;99.90;;;;;;5035657;28;20356;-54
2023/11/01 10:38:52;;;;;;;2.95;0.80;;;16.70;99.90;;;;;;5035161;28;20049;-54
2023/11/01 10:41:18;;;;;;;3.53;0.80;;;17.70;99.90;;;;;;5035038;28;20033;-53
2023/11/01 10:43:44;;;;;;;3.60;0.80;;;18.50;99.90;;;;;;5035460;28;20058;-53
2023/11/01 10:46:10;;;;;;;2.88;0.52;;;18.70;99.90;;;;;;5035330;28;20033;-54
2023/11/01 10:48:37;;;;;;;3.10;0.93;;;18.60;99.90;;;;;;5035310;28;20129;-52
2023/11/01 10:51:04;;;;;;;4.00;0.98;;;18.00;99.90;;;;;;5035434;28;20034;-55
2023/11/01 10:53:32;;;;;;;2.38;0.60;;;17.30;99.90;;;;;;5035848;28;20043;-52
2023/11/01 10:56:02;;;;;;;8.45;1.40;;;16.70;99.90;;;;;;5017968;28;20383;-52
2023/11/01 10:58:30;;;;;;;3.35;0.90;;;16.30;99.90;;;;;;5017062;28;20086;-51
2023/11/01 11:01:19;;;;;;;4.03;0.60;;;16.00;99.90;;;;;;5035220;28;20034;-54
2023/11/01 11:04:14;;;;;;;2.90;0.60;;;15.70;99.90;;;;;;5034848;28;20456;-55
2023/11/01 11:06:57;;;;;;;4.80;0.70;;;15.60;99.90;;;;;;5033091;28;20038;-54
2023/11/01 11:09:24;;;;;;;3.65;0.73;;;15.70;99.90;;;;;;5032637;28;20517;-54
2023/11/01 11:12:24;;;;;;;3.38;0.57;;;16.10;99.90;;;;;;5034903;28;20041;-52
2023/11/01 11:14:53;;;;;;;2.42;0.73;;;16.90;99.90;;;;;;5034692;28;20037;-54
2023/11/01 11:17:25;;;;;;;3.47;0.68;;;17.30;99.90;;;;;;5035374;28;20037;-51
2023/11/01 11:20:16;;;;;;;2.53;0.70;;;17.30;99.90;;;;;;5034805;28;20391;-55
2023/11/01 11:23:02;;;;;;;5.03;1.10;;;17.10;99.90;;;;;;5035070;28;20102;-55
2023/11/01 11:25:37;;;;;;;2.67;0.70;;;17.00;99.90;;;;;;5035058;28;20443;-54
2023/11/01 11:28:09;;;;;;;5.43;0.80;;;16.60;99.90;;;;;;5035139;28;20030;-55
2023/11/01 11:30:44;;;;;;;2.70;0.70;;;16.20;99.90;;;;;;5017466;28;20030;-54
2023/11/01 11:33:12;;;;;;;2.50;0.65;;;16.00;99.90;;;;;;5034760;28;20041;-55
2023/11/01 11:35:38;;;;;;;2.92;0.77;;;15.70;99.90;;;;;;5034874;28;20048;-52
2023/11/01 11:38:32;;;;;;;2.60;0.90;;;15.60;99.90;;;;;;5037791;28;20041;-50
2023/11/01 11:41:17;;;;;;;3.58;0.75;;;15.50;99.90;;;;;;5021259;28;20475;-51
2023/11/01 11:44:01;;;;;;;2.08;0.60;;;15.50;99.90;;;;;;5038824;28;20038;-52
2023/11/01 11:46:28;;;;;;;5.50;1.10;;;15.50;99.90;;;;;;5038336;28;20064;-52
2023/11/01 11:48:55;;;;;;;2.80;1.00;;;15.40;99.90;;;;;;5038595;28;20026;-53
2023/11/01 11:51:20;;;;;;;2.70;1.23;;;15.50;99.90;;;;;;5039219;28;20467;-51
2023/11/01 11:53:46;;;;;;;2.85;0.70;;;15.80;99.90;;;;;;5039177;28;20041;-54
2023/11/01 11:56:16;;;;;;;4.35;0.70;;;16.00;99.90;;;;;;5038631;28;20037;-50
2023/11/01 11:58:41;;;;;;;4.78;0.70;;;16.10;99.90;;;;;;5038560;28;20397;-50
2023/11/01 12:01:07;;;;;;;1.55;0.50;;;16.00;99.90;;;;;;5038740;28;20029;-53
2023/11/01 12:03:33;;;;;;;2.42;0.98;;;15.90;99.90;;;;;;5038545;28;20029;-53
2023/11/01 12:06:01;;;;;;;4.60;0.63;;;15.90;99.90;;;;;;5020623;28;20065;-51
2023/11/01 12:08:37;;;;;;;5.72;1.10;;;15.90;99.90;;;;;;5038224;28;20046;-51
2023/11/01 12:11:03;;;;;;;1.80;0.70;;;16.10;99.90;;;;;;5037798;28;20478;-53
2023/11/01 12:13:47;;;;;;;3.75;1.15;;;16.40;99.90;;;;;;5038049;28;20056;-53
2023/11/01 12:16:27;;;;;;;2.78;0.98;;;16.60;99.90;;;;;;5038242;28;20041;-54
2023/11/01 12:19:13;;;;;;;6.47;1.20;;;16.80;99.90;;;;;;5037804;28;20478;-52
2023/11/01 12:21:45;;;;;;;2.60;0.75;;;17.00;99.90;;;;;;5020385;28;20363;-53
2023/11/01 12:24:14;;;;;;;6.10;1.27;;;17.40;99.90;;;;;;5037957;28;20121;-52
2023/11/01 12:26:57;;;;;;;7.30;2.20;;;17.40;99.90;;;;;;5037928;28;20439;-54
2023/11/01 12:29:23;;;;;;;7.32;2.35;;;17.20;99.90;;;;;;5037642;28;20090;-54
2023/11/01 12:32:08;;;;;;;3.75;0.88;;;17.10;99.90;;;;;;5020339;28;20067;-52
2023/11/01 12:34:37;;;;;;;4.72;0.68;;;16.60;99.90;;;;;;5038005;28;20128;-50
2023/11/01 12:37:13;;;;;;;1.80;0.60;;;16.50;99.90;;;;;;5037184;28;20036;-53
2023/11/01 12:39:39;;;;;;;2.60;0.60;;;16.10;99.90;;;;;;5038121;28;20475;-52
2023/11/01 12:42:25;;;;;;;6.20;0.95;;;15.90;99.90;;;;;;5037918;28;20036;-53
2023/11/01 12:44:54;;;;;;;4.53;1.33;;;15.90;99.90;;;;;;5037834;28;20128;-53
2023/11/01 12:47:20;;;;;;;;;;;16.00;99.90;;;;;;5038306;28;20045;-54
2023/11/01 12:49:47;;;;;;;3.20;0.70;;;16.20;99.90;;;;;;5035931;28;20386;-50